sensor_id;sensor_type;location;lat;lon;timestamp;temperature;humidity
18506;DHT22;9382;53.242;10.438;2023-07-16T00:01:52;20.70;99.90
18506;DHT22;9382;53.242;10.438;2023-07-16T00:04:19;20.70;99.90
18506;DHT22;9382;53.242;10.438;2023-07-16T00:06:47;20.60;99.90
18506;DHT22;9382;53.242;10.438;2023-07-16T00:09:14;20.50;99.90
18506;DHT22;9382;53.242;10.438;2023-07-16T00:11:41;20.50;99.90
18506;DHT22;9382;53.242;10.438;2023-07-16T00:14:09;20.50;99.90
18506;DHT22;9382;53.242;10.438;2023-07-16T00:16:36;20.50;99.90
18506;DHT22;9382;53.242;10.438;2023-07-16T00:19:03;20.50;99.90
18506;DHT22;9382;53.242;10.438;2023-07-16T00:21:30;20.40;99.90
18506;DHT22;9382;53.242;10.438;2023-07-16T00:23:58;20.30;99.90
18506;DHT22;9382;53.242;10.438;2023-07-16T00:26:25;20.30;99.90
18506;DHT22;9382;53.242;10.438;2023-07-16T00:28:52;20.30;99.90
18506;DHT22;9382;53.242;10.438;2023-07-16T00:31:19;20.30;99.90
18506;DHT22;9382;53.242;10.438;2023-07-16T00:33:46;20.30;99.90
18506;DHT22;9382;53.242;10.438;2023-07-16T00:36:13;20.30;99.90
18506;DHT22;9382;53.242;10.438;2023-07-16T00:38:39;20.30;99.90
18506;DHT22;9382;53.242;10.438;2023-07-16T00:41:08;20.20;99.90
18506;DHT22;9382;53.242;10.438;2023-07-16T00:43:35;20.20;99.90
18506;DHT22;9382;53.242;10.438;2023-07-16T00:46:02;20.10;99.90
18506;DHT22;9382;53.242;10.438;2023-07-16T00:48:29;20.10;99.90
18506;DHT22;9382;53.242;10.438;2023-07-16T00:50:56;20.10;99.90
18506;DHT22;9382;53.242;10.438;2023-07-16T00:53:24;20.00;99.90
18506;DHT22;9382;53.242;10.438;2023-07-16T00:55:51;20.10;99.90
18506;DHT22;9382;53.242;10.438;2023-07-16T00:58:19;20.00;99.90
18506;DHT22;9382;53.242;10.438;2023-07-16T01:00:46;20.00;99.90
18506;DHT22;9382;53.242;10.438;2023-07-16T01:03:14;20.00;99.90
18506;DHT22;9382;53.242;10.438;2023-07-16T01:05:47;20.00;99.90
18506;DHT22;9382;53.242;10.438;2023-07-16T01:08:21;20.00;99.90
18506;DHT22;9382;53.242;10.438;2023-07-16T01:10:54;19.90;99.90
18506;DHT22;9382;53.242;10.438;2023-07-16T01:13:23;19.90;99.90
18506;DHT22;9382;53.242;10.438;2023-07-16T01:15:51;19.80;99.90
18506;DHT22;9382;53.242;10.438;2023-07-16T01:18:17;19.80;99.90
18506;DHT22;9382;53.242;10.438;2023-07-16T01:20:44;19.70;99.90
18506;DHT22;9382;53.242;10.438;2023-07-16T01:23:27;19.70;99.90
18506;DHT22;9382;53.242;10.438;2023-07-16T01:26:22;19.70;99.90
18506;DHT22;9382;53.242;10.438;2023-07-16T01:29:18;19.70;99.90
18506;DHT22;9382;53.242;10.438;2023-07-16T01:31:49;19.70;99.90
18506;DHT22;9382;53.242;10.438;2023-07-16T01:34:17;19.70;99.90
18506;DHT22;9382;53.242;10.438;2023-07-16T01:36:45;19.60;99.90
18506;DHT22;9382;53.242;10.438;2023-07-16T01:39:13;19.60;99.90
18506;DHT22;9382;53.242;10.438;2023-07-16T01:41:40;19.60;99.90
18506;DHT22;9382;53.242;10.438;2023-07-16T01:44:06;19.60;99.90
18506;DHT22;9382;53.242;10.438;2023-07-16T01:46:35;19.60;99.90
18506;DHT22;9382;53.242;10.438;2023-07-16T01:49:01;19.60;99.90
18506;DHT22;9382;53.242;10.438;2023-07-16T01:51:28;19.60;99.90
18506;DHT22;9382;53.242;10.438;2023-07-16T01:53:55;19.50;99.90
18506;DHT22;9382;53.242;10.438;2023-07-16T01:56:22;19.50;99.90
18506;DHT22;9382;53.242;10.438;2023-07-16T01:58:49;19.50;99.90
18506;DHT22;9382;53.242;10.438;2023-07-16T02:01:15;19.50;99.90
18506;DHT22;9382;53.242;10.438;2023-07-16T02:03:43;19.50;99.90
18506;DHT22;9382;53.242;10.438;2023-07-16T02:06:10;19.50;99.90
18506;DHT22;9382;53.242;10.438;2023-07-16T02:08:39;19.50;99.90
18506;DHT22;9382;53.242;10.438;2023-07-16T02:11:05;19.50;99.90
18506;DHT22;9382;53.242;10.438;2023-07-16T02:13:32;19.50;99.90
18506;DHT22;9382;53.242;10.438;2023-07-16T02:15:59;19.40;99.90
18506;DHT22;9382;53.242;10.438;2023-07-16T02:18:26;19.40;99.90
18506;DHT22;9382;53.242;10.438;2023-07-16T02:20:54;19.40;99.90
18506;DHT22;9382;53.242;10.438;2023-07-16T02:23:21;19.40;99.90
18506;DHT22;9382;53.242;10.438;2023-07-16T02:25:47;19.40;99.90
18506;DHT22;9382;53.242;10.438;2023-07-16T02:28:14;19.30;99.90
18506;DHT22;9382;53.242;10.438;2023-07-16T02:30:41;19.30;99.90
18506;DHT22;9382;53.242;10.438;2023-07-16T02:33:08;19.30;99.90
18506;DHT22;9382;53.242;10.438;2023-07-16T02:35:35;19.30;99.90
18506;DHT22;9382;53.242;10.438;2023-07-16T02:38:03;19.20;99.90
18506;DHT22;9382;53.242;10.438;2023-07-16T02:40:30;19.10;99.90
18506;DHT22;9382;53.242;10.438;2023-07-16T02:42:56;19.10;99.90
18506;DHT22;9382;53.242;10.438;2023-07-16T02:45:23;19.00;99.90
18506;DHT22;9382;53.242;10.438;2023-07-16T02:47:50;18.90;99.90
18506;DHT22;9382;53.242;10.438;2023-07-16T02:50:17;18.80;99.90
18506;DHT22;9382;53.242;10.438;2023-07-16T02:52:43;18.60;99.90
18506;DHT22;9382;53.242;10.438;2023-07-16T02:55:12;18.60;99.90
18506;DHT22;9382;53.242;10.438;2023-07-16T02:57:38;18.50;99.90
18506;DHT22;9382;53.242;10.438;2023-07-16T03:00:06;18.40;99.90
18506;DHT22;9382;53.242;10.438;2023-07-16T03:02:33;18.30;99.90
18506;DHT22;9382;53.242;10.438;2023-07-16T03:05:00;18.30;99.90
18506;DHT22;9382;53.242;10.438;2023-07-16T03:07:27;18.20;99.90
18506;DHT22;9382;53.242;10.438;2023-07-16T03:09:54;18.10;99.90
18506;DHT22;9382;53.242;10.438;2023-07-16T03:12:22;18.10;99.90
18506;DHT22;9382;53.242;10.438;2023-07-16T03:14:50;18.00;99.90
18506;DHT22;9382;53.242;10.438;2023-07-16T03:17:19;18.00;99.90
18506;DHT22;9382;53.242;10.438;2023-07-16T03:19:46;18.00;99.90
18506;DHT22;9382;53.242;10.438;2023-07-16T03:22:13;17.90;99.90
18506;DHT22;9382;53.242;10.438;2023-07-16T03:24:40;17.90;99.90
18506;DHT22;9382;53.242;10.438;2023-07-16T03:27:07;17.80;99.90
18506;DHT22;9382;53.242;10.438;2023-07-16T03:29:35;17.80;99.90
18506;DHT22;9382;53.242;10.438;2023-07-16T03:32:02;17.80;99.90
18506;DHT22;9382;53.242;10.438;2023-07-16T03:34:29;17.80;99.90
18506;DHT22;9382;53.242;10.438;2023-07-16T03:36:56;17.80;99.90
18506;DHT22;9382;53.242;10.438;2023-07-16T03:39:23;17.80;99.90
18506;DHT22;9382;53.242;10.438;2023-07-16T03:41:49;17.80;99.90
18506;DHT22;9382;53.242;10.438;2023-07-16T03:44:16;17.80;99.90
18506;DHT22;9382;53.242;10.438;2023-07-16T03:46:47;17.80;99.90
18506;DHT22;9382;53.242;10.438;2023-07-16T03:49:13;17.80;99.90
18506;DHT22;9382;53.242;10.438;2023-07-16T03:51:40;17.80;99.90
18506;DHT22;9382;53.242;10.438;2023-07-16T03:54:07;17.80;99.90
18506;DHT22;9382;53.242;10.438;2023-07-16T03:56:34;17.80;99.90
18506;DHT22;9382;53.242;10.438;2023-07-16T03:59:01;17.80;99.90
18506;DHT22;9382;53.242;10.438;2023-07-16T04:01:27;17.80;99.90
18506;DHT22;9382;53.242;10.438;2023-07-16T04:03:55;17.80;99.90
18506;DHT22;9382;53.242;10.438;2023-07-16T04:06:22;17.80;99.90
18506;DHT22;9382;53.242;10.438;2023-07-16T04:08:49;17.80;99.90
18506;DHT22;9382;53.242;10.438;2023-07-16T04:11:16;17.80;99.90
18506;DHT22;9382;53.242;10.438;2023-07-16T04:13:43;17.80;99.90
18506;DHT22;9382;53.242;10.438;2023-07-16T04:16:10;17.90;99.90
18506;DHT22;9382;53.242;10.438;2023-07-16T04:18:36;17.90;99.90
18506;DHT22;9382;53.242;10.438;2023-07-16T04:21:05;17.90;99.90
18506;DHT22;9382;53.242;10.438;2023-07-16T04:23:31;17.90;99.90
18506;DHT22;9382;53.242;10.438;2023-07-16T04:25:58;17.90;99.90
18506;DHT22;9382;53.242;10.438;2023-07-16T04:28:25;18.00;99.90
18506;DHT22;9382;53.242;10.438;2023-07-16T04:30:52;18.00;99.90
18506;DHT22;9382;53.242;10.438;2023-07-16T04:33:18;18.00;99.90
18506;DHT22;9382;53.242;10.438;2023-07-16T04:35:45;18.00;99.90
18506;DHT22;9382;53.242;10.438;2023-07-16T04:38:13;18.00;99.90
18506;DHT22;9382;53.242;10.438;2023-07-16T04:40:41;18.10;99.90
18506;DHT22;9382;53.242;10.438;2023-07-16T04:43:08;18.00;99.90
18506;DHT22;9382;53.242;10.438;2023-07-16T04:45:35;18.10;99.90
18506;DHT22;9382;53.242;10.438;2023-07-16T04:48:02;18.10;99.90
18506;DHT22;9382;53.242;10.438;2023-07-16T04:50:29;18.10;99.90
18506;DHT22;9382;53.242;10.438;2023-07-16T04:52:56;18.20;99.90
18506;DHT22;9382;53.242;10.438;2023-07-16T04:55:24;18.20;99.90
18506;DHT22;9382;53.242;10.438;2023-07-16T04:57:51;18.20;99.90
18506;DHT22;9382;53.242;10.438;2023-07-16T05:00:19;18.30;99.90
18506;DHT22;9382;53.242;10.438;2023-07-16T05:02:45;18.30;99.90
18506;DHT22;9382;53.242;10.438;2023-07-16T05:05:12;18.30;99.90
18506;DHT22;9382;53.242;10.438;2023-07-16T05:07:39;18.30;99.90
18506;DHT22;9382;53.242;10.438;2023-07-16T05:10:07;18.20;99.90
18506;DHT22;9382;53.242;10.438;2023-07-16T05:12:35;18.20;99.90
18506;DHT22;9382;53.242;10.438;2023-07-16T05:15:02;18.20;99.90
18506;DHT22;9382;53.242;10.438;2023-07-16T05:17:29;18.30;99.90
18506;DHT22;9382;53.242;10.438;2023-07-16T05:19:55;18.40;99.90
18506;DHT22;9382;53.242;10.438;2023-07-16T05:22:22;18.50;99.90
18506;DHT22;9382;53.242;10.438;2023-07-16T05:24:49;18.50;99.90
18506;DHT22;9382;53.242;10.438;2023-07-16T05:27:16;18.60;99.90
18506;DHT22;9382;53.242;10.438;2023-07-16T05:29:44;18.60;99.90
18506;DHT22;9382;53.242;10.438;2023-07-16T05:32:11;18.60;99.90
18506;DHT22;9382;53.242;10.438;2023-07-16T05:34:37;18.60;99.90
18506;DHT22;9382;53.242;10.438;2023-07-16T05:37:05;18.70;99.90
18506;DHT22;9382;53.242;10.438;2023-07-16T05:39:32;18.70;99.90
18506;DHT22;9382;53.242;10.438;2023-07-16T05:41:58;18.80;99.90
18506;DHT22;9382;53.242;10.438;2023-07-16T05:44:27;18.90;99.90
18506;DHT22;9382;53.242;10.438;2023-07-16T05:46:55;19.00;99.90
18506;DHT22;9382;53.242;10.438;2023-07-16T05:49:22;19.00;99.90
18506;DHT22;9382;53.242;10.438;2023-07-16T05:51:49;19.00;99.90
18506;DHT22;9382;53.242;10.438;2023-07-16T05:54:16;19.10;99.90
18506;DHT22;9382;53.242;10.438;2023-07-16T05:56:43;19.10;99.90
18506;DHT22;9382;53.242;10.438;2023-07-16T05:59:10;19.20;99.90
18506;DHT22;9382;53.242;10.438;2023-07-16T06:01:36;19.30;99.90
18506;DHT22;9382;53.242;10.438;2023-07-16T06:04:04;19.40;99.90
18506;DHT22;9382;53.242;10.438;2023-07-16T06:06:31;19.50;99.90
18506;DHT22;9382;53.242;10.438;2023-07-16T06:08:58;19.50;99.90
18506;DHT22;9382;53.242;10.438;2023-07-16T06:11:25;19.60;99.90
18506;DHT22;9382;53.242;10.438;2023-07-16T06:13:53;19.70;99.90
18506;DHT22;9382;53.242;10.438;2023-07-16T06:16:20;19.80;99.90
18506;DHT22;9382;53.242;10.438;2023-07-16T06:18:47;19.90;99.90
18506;DHT22;9382;53.242;10.438;2023-07-16T06:21:15;19.90;99.90
18506;DHT22;9382;53.242;10.438;2023-07-16T06:23:42;20.00;99.90
18506;DHT22;9382;53.242;10.438;2023-07-16T06:26:09;20.10;99.90
18506;DHT22;9382;53.242;10.438;2023-07-16T06:28:36;20.10;99.90
18506;DHT22;9382;53.242;10.438;2023-07-16T06:31:02;20.30;99.90
18506;DHT22;9382;53.242;10.438;2023-07-16T06:33:29;20.40;99.90
18506;DHT22;9382;53.242;10.438;2023-07-16T06:35:56;20.50;99.90
18506;DHT22;9382;53.242;10.438;2023-07-16T06:38:24;20.80;99.90
18506;DHT22;9382;53.242;10.438;2023-07-16T06:40:52;20.90;99.90
18506;DHT22;9382;53.242;10.438;2023-07-16T06:43:19;21.00;99.90
18506;DHT22;9382;53.242;10.438;2023-07-16T06:45:45;21.20;99.90
18506;DHT22;9382;53.242;10.438;2023-07-16T06:48:12;21.30;99.90
18506;DHT22;9382;53.242;10.438;2023-07-16T06:50:39;21.30;99.90
18506;DHT22;9382;53.242;10.438;2023-07-16T06:53:06;21.30;99.90
18506;DHT22;9382;53.242;10.438;2023-07-16T06:55:34;21.20;99.90
18506;DHT22;9382;53.242;10.438;2023-07-16T06:58:01;21.20;99.90
18506;DHT22;9382;53.242;10.438;2023-07-16T07:00:28;21.20;99.90
18506;DHT22;9382;53.242;10.438;2023-07-16T07:02:56;21.20;99.90
18506;DHT22;9382;53.242;10.438;2023-07-16T07:05:22;21.40;99.90
18506;DHT22;9382;53.242;10.438;2023-07-16T07:07:49;21.70;99.90
18506;DHT22;9382;53.242;10.438;2023-07-16T07:10:16;21.90;99.90
18506;DHT22;9382;53.242;10.438;2023-07-16T07:12:44;22.10;99.90
18506;DHT22;9382;53.242;10.438;2023-07-16T07:15:11;22.10;99.90
18506;DHT22;9382;53.242;10.438;2023-07-16T07:17:39;22.20;99.90
18506;DHT22;9382;53.242;10.438;2023-07-16T07:20:09;22.20;99.90
18506;DHT22;9382;53.242;10.438;2023-07-16T07:22:36;22.20;99.90
18506;DHT22;9382;53.242;10.438;2023-07-16T07:25:03;22.30;99.90
18506;DHT22;9382;53.242;10.438;2023-07-16T07:27:30;22.10;99.90
18506;DHT22;9382;53.242;10.438;2023-07-16T07:29:58;22.00;99.90
18506;DHT22;9382;53.242;10.438;2023-07-16T07:32:25;21.90;99.90
18506;DHT22;9382;53.242;10.438;2023-07-16T07:34:52;21.80;99.90
18506;DHT22;9382;53.242;10.438;2023-07-16T07:37:18;21.80;99.90
18506;DHT22;9382;53.242;10.438;2023-07-16T07:39:45;21.90;99.90
18506;DHT22;9382;53.242;10.438;2023-07-16T07:42:13;22.20;99.90
18506;DHT22;9382;53.242;10.438;2023-07-16T07:44:40;22.50;99.90
18506;DHT22;9382;53.242;10.438;2023-07-16T07:47:08;22.80;99.90
18506;DHT22;9382;53.242;10.438;2023-07-16T07:49:35;23.00;99.90
18506;DHT22;9382;53.242;10.438;2023-07-16T07:52:02;23.10;99.90
18506;DHT22;9382;53.242;10.438;2023-07-16T07:54:30;23.00;99.90
18506;DHT22;9382;53.242;10.438;2023-07-16T07:57:00;23.00;99.90
18506;DHT22;9382;53.242;10.438;2023-07-16T07:59:28;22.80;99.90
18506;DHT22;9382;53.242;10.438;2023-07-16T08:01:55;22.80;99.90
18506;DHT22;9382;53.242;10.438;2023-07-16T08:04:24;22.90;99.90
18506;DHT22;9382;53.242;10.438;2023-07-16T08:06:52;22.70;99.90
18506;DHT22;9382;53.242;10.438;2023-07-16T08:09:19;22.50;99.90
18506;DHT22;9382;53.242;10.438;2023-07-16T08:11:46;22.50;99.90
18506;DHT22;9382;53.242;10.438;2023-07-16T08:14:13;22.50;99.90
18506;DHT22;9382;53.242;10.438;2023-07-16T08:16:40;22.30;99.90
18506;DHT22;9382;53.242;10.438;2023-07-16T08:19:07;22.20;99.90
18506;DHT22;9382;53.242;10.438;2023-07-16T08:21:35;22.40;99.90
18506;DHT22;9382;53.242;10.438;2023-07-16T08:24:04;22.50;99.90
18506;DHT22;9382;53.242;10.438;2023-07-16T08:26:31;22.70;99.90
18506;DHT22;9382;53.242;10.438;2023-07-16T08:28:58;22.80;99.90
18506;DHT22;9382;53.242;10.438;2023-07-16T08:31:24;22.80;99.90
18506;DHT22;9382;53.242;10.438;2023-07-16T08:33:51;22.90;99.90
18506;DHT22;9382;53.242;10.438;2023-07-16T08:36:18;22.70;99.90
18506;DHT22;9382;53.242;10.438;2023-07-16T08:38:46;22.70;99.90
18506;DHT22;9382;53.242;10.438;2023-07-16T08:41:14;22.60;99.90
18506;DHT22;9382;53.242;10.438;2023-07-16T08:43:41;22.60;99.90
18506;DHT22;9382;53.242;10.438;2023-07-16T08:46:09;22.60;99.90
18506;DHT22;9382;53.242;10.438;2023-07-16T08:48:36;23.00;99.90
18506;DHT22;9382;53.242;10.438;2023-07-16T08:51:03;23.50;99.90
18506;DHT22;9382;53.242;10.438;2023-07-16T08:53:30;23.90;99.90
18506;DHT22;9382;53.242;10.438;2023-07-16T08:55:58;24.10;99.90
18506;DHT22;9382;53.242;10.438;2023-07-16T08:58:25;23.70;99.90
18506;DHT22;9382;53.242;10.438;2023-07-16T09:00:52;23.30;99.90
18506;DHT22;9382;53.242;10.438;2023-07-16T09:03:19;23.20;99.90
18506;DHT22;9382;53.242;10.438;2023-07-16T09:05:46;23.00;99.90
18506;DHT22;9382;53.242;10.438;2023-07-16T09:08:13;22.90;99.90
18506;DHT22;9382;53.242;10.438;2023-07-16T09:10:41;23.30;99.90
18506;DHT22;9382;53.242;10.438;2023-07-16T09:13:09;23.80;99.90
18506;DHT22;9382;53.242;10.438;2023-07-16T09:15:36;24.20;99.90
18506;DHT22;9382;53.242;10.438;2023-07-16T09:18:04;24.40;99.90
18506;DHT22;9382;53.242;10.438;2023-07-16T09:20:30;24.00;99.90
18506;DHT22;9382;53.242;10.438;2023-07-16T09:22:58;23.60;99.90
18506;DHT22;9382;53.242;10.438;2023-07-16T09:25:28;23.40;99.90
18506;DHT22;9382;53.242;10.438;2023-07-16T09:27:56;23.00;99.90
18506;DHT22;9382;53.242;10.438;2023-07-16T09:30:25;22.90;99.90
18506;DHT22;9382;53.242;10.438;2023-07-16T09:32:51;23.40;99.90
18506;DHT22;9382;53.242;10.438;2023-07-16T09:35:18;24.00;99.90
18506;DHT22;9382;53.242;10.438;2023-07-16T09:37:45;24.50;99.90
18506;DHT22;9382;53.242;10.438;2023-07-16T09:40:12;24.60;99.90
18506;DHT22;9382;53.242;10.438;2023-07-16T09:42:40;24.40;99.90
18506;DHT22;9382;53.242;10.438;2023-07-16T09:45:12;24.30;99.90
18506;DHT22;9382;53.242;10.438;2023-07-16T09:47:40;24.40;99.90
18506;DHT22;9382;53.242;10.438;2023-07-16T09:50:08;24.80;99.90
18506;DHT22;9382;53.242;10.438;2023-07-16T09:52:35;25.30;99.90
18506;DHT22;9382;53.242;10.438;2023-07-16T09:55:03;25.50;99.90
18506;DHT22;9382;53.242;10.438;2023-07-16T09:57:33;25.90;99.90
18506;DHT22;9382;53.242;10.438;2023-07-16T10:00:03;26.00;99.90
18506;DHT22;9382;53.242;10.438;2023-07-16T10:02:34;26.20;99.90
18506;DHT22;9382;53.242;10.438;2023-07-16T10:05:12;26.10;99.90
18506;DHT22;9382;53.242;10.438;2023-07-16T10:07:40;25.40;99.90
18506;DHT22;9382;53.242;10.438;2023-07-16T10:10:08;24.80;99.90
18506;DHT22;9382;53.242;10.438;2023-07-16T10:12:35;24.60;99.90
18506;DHT22;9382;53.242;10.438;2023-07-16T10:15:03;24.70;99.90
18506;DHT22;9382;53.242;10.438;2023-07-16T10:17:30;24.80;99.90
18506;DHT22;9382;53.242;10.438;2023-07-16T10:19:59;24.90;99.90
18506;DHT22;9382;53.242;10.438;2023-07-16T10:22:34;24.90;99.90
18506;DHT22;9382;53.242;10.438;2023-07-16T10:25:03;25.20;99.90
18506;DHT22;9382;53.242;10.438;2023-07-16T10:27:31;25.10;99.90
18506;DHT22;9382;53.242;10.438;2023-07-16T10:29:59;25.50;99.90
18506;DHT22;9382;53.242;10.438;2023-07-16T10:32:27;25.80;99.90
18506;DHT22;9382;53.242;10.438;2023-07-16T10:34:55;25.60;99.90
18506;DHT22;9382;53.242;10.438;2023-07-16T10:37:22;25.80;99.90
18506;DHT22;9382;53.242;10.438;2023-07-16T10:39:51;26.30;99.90
18506;DHT22;9382;53.242;10.438;2023-07-16T10:42:20;26.70;99.90
18506;DHT22;9382;53.242;10.438;2023-07-16T10:44:49;26.50;99.90
18506;DHT22;9382;53.242;10.438;2023-07-16T10:47:22;26.30;99.90
18506;DHT22;9382;53.242;10.438;2023-07-16T10:49:49;26.60;99.90
18506;DHT22;9382;53.242;10.438;2023-07-16T10:52:17;26.90;99.90
18506;DHT22;9382;53.242;10.438;2023-07-16T10:54:44;27.00;99.90
18506;DHT22;9382;53.242;10.438;2023-07-16T10:57:13;27.30;99.90
18506;DHT22;9382;53.242;10.438;2023-07-16T10:59:41;27.30;99.90
18506;DHT22;9382;53.242;10.438;2023-07-16T11:02:12;27.20;99.90
18506;DHT22;9382;53.242;10.438;2023-07-16T11:04:39;27.00;99.90
18506;DHT22;9382;53.242;10.438;2023-07-16T11:07:08;27.40;99.90
18506;DHT22;9382;53.242;10.438;2023-07-16T11:09:40;27.10;99.90
18506;DHT22;9382;53.242;10.438;2023-07-16T11:12:10;26.90;99.90
18506;DHT22;9382;53.242;10.438;2023-07-16T11:14:39;27.00;99.90
18506;DHT22;9382;53.242;10.438;2023-07-16T11:17:08;26.90;99.90
18506;DHT22;9382;53.242;10.438;2023-07-16T11:19:36;27.10;99.90
18506;DHT22;9382;53.242;10.438;2023-07-16T11:22:05;27.40;99.90
18506;DHT22;9382;53.242;10.438;2023-07-16T11:24:40;27.50;99.90
18506;DHT22;9382;53.242;10.438;2023-07-16T11:27:13;28.10;99.90
18506;DHT22;9382;53.242;10.438;2023-07-16T11:29:45;27.60;99.90
18506;DHT22;9382;53.242;10.438;2023-07-16T11:32:12;26.90;99.90
18506;DHT22;9382;53.242;10.438;2023-07-16T11:34:51;26.40;99.90
18506;DHT22;9382;53.242;10.438;2023-07-16T11:37:18;26.70;99.90
18506;DHT22;9382;53.242;10.438;2023-07-16T11:39:46;27.30;99.90
18506;DHT22;9382;53.242;10.438;2023-07-16T11:42:13;27.70;99.90
18506;DHT22;9382;53.242;10.438;2023-07-16T11:44:41;28.00;99.90
18506;DHT22;9382;53.242;10.438;2023-07-16T11:47:08;27.90;99.90
18506;DHT22;9382;53.242;10.438;2023-07-16T11:49:35;27.60;99.90
18506;DHT22;9382;53.242;10.438;2023-07-16T11:52:02;27.60;99.90
18506;DHT22;9382;53.242;10.438;2023-07-16T11:54:29;27.50;99.90
18506;DHT22;9382;53.242;10.438;2023-07-16T11:56:56;27.10;99.90
18506;DHT22;9382;53.242;10.438;2023-07-16T11:59:22;27.30;99.90
18506;DHT22;9382;53.242;10.438;2023-07-16T12:01:50;27.50;99.90
18506;DHT22;9382;53.242;10.438;2023-07-16T12:04:18;27.80;99.90
18506;DHT22;9382;53.242;10.438;2023-07-16T12:06:46;27.50;99.90
18506;DHT22;9382;53.242;10.438;2023-07-16T12:09:12;27.70;99.90
18506;DHT22;9382;53.242;10.438;2023-07-16T12:11:39;27.60;99.90
18506;DHT22;9382;53.242;10.438;2023-07-16T12:14:06;27.00;99.90
18506;DHT22;9382;53.242;10.438;2023-07-16T12:16:33;27.40;99.90
18506;DHT22;9382;53.242;10.438;2023-07-16T12:19:02;27.10;99.90
18506;DHT22;9382;53.242;10.438;2023-07-16T12:21:28;26.80;99.90
18506;DHT22;9382;53.242;10.438;2023-07-16T12:23:55;26.80;99.90
18506;DHT22;9382;53.242;10.438;2023-07-16T12:26:22;26.50;99.90
18506;DHT22;9382;53.242;10.438;2023-07-16T12:28:49;26.20;99.90
18506;DHT22;9382;53.242;10.438;2023-07-16T12:31:15;26.30;99.90
18506;DHT22;9382;53.242;10.438;2023-07-16T12:33:43;27.20;99.90
18506;DHT22;9382;53.242;10.438;2023-07-16T12:36:11;28.30;99.90
18506;DHT22;9382;53.242;10.438;2023-07-16T12:38:38;28.20;99.90
18506;DHT22;9382;53.242;10.438;2023-07-16T12:41:05;27.60;99.90
18506;DHT22;9382;53.242;10.438;2023-07-16T12:43:32;26.90;99.90
18506;DHT22;9382;53.242;10.438;2023-07-16T12:46:00;26.60;99.90
18506;DHT22;9382;53.242;10.438;2023-07-16T12:48:28;26.70;99.90
18506;DHT22;9382;53.242;10.438;2023-07-16T12:50:55;26.50;99.90
18506;DHT22;9382;53.242;10.438;2023-07-16T12:53:23;26.30;99.90
18506;DHT22;9382;53.242;10.438;2023-07-16T12:55:50;26.90;99.90
18506;DHT22;9382;53.242;10.438;2023-07-16T12:58:17;27.00;99.90
18506;DHT22;9382;53.242;10.438;2023-07-16T13:00:43;27.20;99.90
18506;DHT22;9382;53.242;10.438;2023-07-16T13:03:10;28.30;99.90
18506;DHT22;9382;53.242;10.438;2023-07-16T13:05:39;28.90;99.90
18506;DHT22;9382;53.242;10.438;2023-07-16T13:08:06;28.50;99.90
18506;DHT22;9382;53.242;10.438;2023-07-16T13:10:34;28.00;99.90
18506;DHT22;9382;53.242;10.438;2023-07-16T13:13:01;27.40;99.90
18506;DHT22;9382;53.242;10.438;2023-07-16T13:15:29;26.80;99.90
18506;DHT22;9382;53.242;10.438;2023-07-16T13:17:55;26.60;99.90
18506;DHT22;9382;53.242;10.438;2023-07-16T13:20:22;26.40;99.90
18506;DHT22;9382;53.242;10.438;2023-07-16T13:22:49;26.50;99.90
18506;DHT22;9382;53.242;10.438;2023-07-16T13:25:16;26.60;99.90
18506;DHT22;9382;53.242;10.438;2023-07-16T13:27:44;26.40;99.90
18506;DHT22;9382;53.242;10.438;2023-07-16T13:30:12;26.40;99.90
18506;DHT22;9382;53.242;10.438;2023-07-16T13:32:39;26.40;99.90
18506;DHT22;9382;53.242;10.438;2023-07-16T13:35:06;26.60;99.90
18506;DHT22;9382;53.242;10.438;2023-07-16T13:37:33;26.60;99.90
18506;DHT22;9382;53.242;10.438;2023-07-16T13:40:00;26.40;99.90
18506;DHT22;9382;53.242;10.438;2023-07-16T13:42:27;26.30;99.90
18506;DHT22;9382;53.242;10.438;2023-07-16T13:44:55;26.20;99.90
18506;DHT22;9382;53.242;10.438;2023-07-16T13:47:22;26.40;99.90
18506;DHT22;9382;53.242;10.438;2023-07-16T13:49:48;26.60;99.90
18506;DHT22;9382;53.242;10.438;2023-07-16T13:52:15;26.70;99.90
18506;DHT22;9382;53.242;10.438;2023-07-16T13:54:42;27.30;99.90
18506;DHT22;9382;53.242;10.438;2023-07-16T13:57:09;28.10;99.90
18506;DHT22;9382;53.242;10.438;2023-07-16T13:59:36;27.90;99.90
18506;DHT22;9382;53.242;10.438;2023-07-16T14:02:04;27.60;99.90
18506;DHT22;9382;53.242;10.438;2023-07-16T14:04:31;27.60;99.90
18506;DHT22;9382;53.242;10.438;2023-07-16T14:06:59;28.30;99.90
18506;DHT22;9382;53.242;10.438;2023-07-16T14:09:26;28.30;99.90
18506;DHT22;9382;53.242;10.438;2023-07-16T14:11:52;28.10;99.90
18506;DHT22;9382;53.242;10.438;2023-07-16T14:14:21;27.60;99.90
18506;DHT22;9382;53.242;10.438;2023-07-16T14:16:48;28.20;99.90
18506;DHT22;9382;53.242;10.438;2023-07-16T14:19:16;27.90;99.90
18506;DHT22;9382;53.242;10.438;2023-07-16T14:21:43;27.20;99.90
18506;DHT22;9382;53.242;10.438;2023-07-16T14:24:10;26.40;99.90
18506;DHT22;9382;53.242;10.438;2023-07-16T14:26:37;26.10;99.90
18506;DHT22;9382;53.242;10.438;2023-07-16T14:29:04;26.00;99.90
18506;DHT22;9382;53.242;10.438;2023-07-16T14:31:31;26.10;99.90
18506;DHT22;9382;53.242;10.438;2023-07-16T14:33:57;26.10;99.90
18506;DHT22;9382;53.242;10.438;2023-07-16T14:36:25;25.90;99.90
18506;DHT22;9382;53.242;10.438;2023-07-16T14:38:53;25.70;99.90
18506;DHT22;9382;53.242;10.438;2023-07-16T14:41:20;25.80;99.90
18506;DHT22;9382;53.242;10.438;2023-07-16T14:43:47;26.30;99.90
18506;DHT22;9382;53.242;10.438;2023-07-16T14:46:15;27.30;99.90
18506;DHT22;9382;53.242;10.438;2023-07-16T14:48:42;29.40;99.90
18506;DHT22;9382;53.242;10.438;2023-07-16T14:51:09;30.00;99.90
18506;DHT22;9382;53.242;10.438;2023-07-16T14:53:38;29.00;99.90
18506;DHT22;9382;53.242;10.438;2023-07-16T14:56:05;28.10;99.90
18506;DHT22;9382;53.242;10.438;2023-07-16T14:58:33;27.30;99.90
18506;DHT22;9382;53.242;10.438;2023-07-16T15:01:02;27.00;99.90
18506;DHT22;9382;53.242;10.438;2023-07-16T15:03:33;27.20;99.90
18506;DHT22;9382;53.242;10.438;2023-07-16T15:06:00;28.10;99.90
18506;DHT22;9382;53.242;10.438;2023-07-16T15:08:28;29.90;99.90
18506;DHT22;9382;53.242;10.438;2023-07-16T15:10:58;30.50;99.80
18506;DHT22;9382;53.242;10.438;2023-07-16T15:13:25;30.40;98.60
18506;DHT22;9382;53.242;10.438;2023-07-16T15:15:54;29.90;99.90
18506;DHT22;9382;53.242;10.438;2023-07-16T15:18:22;28.80;98.70
18506;DHT22;9382;53.242;10.438;2023-07-16T15:20:54;27.80;99.90
18506;DHT22;9382;53.242;10.438;2023-07-16T15:23:21;27.00;99.90
18506;DHT22;9382;53.242;10.438;2023-07-16T15:25:48;26.30;99.90
18506;DHT22;9382;53.242;10.438;2023-07-16T15:28:17;26.10;99.90
18506;DHT22;9382;53.242;10.438;2023-07-16T15:30:44;26.20;99.90
18506;DHT22;9382;53.242;10.438;2023-07-16T15:33:11;26.20;99.90